sensor_id;sensor_type;location;lat;lon;timestamp;temperature;humidity
18173;DHT22;9211;48.818;9.312;2022-09-03T00:00:19;17.90;99.90
18173;DHT22;9211;48.818;9.312;2022-09-03T00:02:52;17.80;99.90
18173;DHT22;9211;48.818;9.312;2022-09-03T00:05:30;17.90;99.90
18173;DHT22;9211;48.818;9.312;2022-09-03T00:08:02;17.80;99.90
18173;DHT22;9211;48.818;9.312;2022-09-03T00:10:38;17.90;99.90
18173;DHT22;9211;48.818;9.312;2022-09-03T00:13:12;17.90;99.90
18173;DHT22;9211;48.818;9.312;2022-09-03T00:15:40;17.90;99.90
18173;DHT22;9211;48.818;9.312;2022-09-03T00:18:11;17.90;99.90
18173;DHT22;9211;48.818;9.312;2022-09-03T00:20:44;17.90;99.90
18173;DHT22;9211;48.818;9.312;2022-09-03T00:23:17;17.90;99.90
18173;DHT22;9211;48.818;9.312;2022-09-03T00:25:49;17.90;99.90
18173;DHT22;9211;48.818;9.312;2022-09-03T00:28:21;17.90;99.90
18173;DHT22;9211;48.818;9.312;2022-09-03T00:31:04;17.90;99.90
18173;DHT22;9211;48.818;9.312;2022-09-03T00:33:32;17.90;99.90
18173;DHT22;9211;48.818;9.312;2022-09-03T00:36:09;17.90;99.90
18173;DHT22;9211;48.818;9.312;2022-09-03T00:38:37;17.90;99.90
18173;DHT22;9211;48.818;9.312;2022-09-03T00:41:09;17.90;99.90
18173;DHT22;9211;48.818;9.312;2022-09-03T00:43:50;17.90;99.90
18173;DHT22;9211;48.818;9.312;2022-09-03T00:46:25;17.90;99.90
18173;DHT22;9211;48.818;9.312;2022-09-03T00:49:09;17.90;99.90
18173;DHT22;9211;48.818;9.312;2022-09-03T00:51:43;18.00;99.90
18173;DHT22;9211;48.818;9.312;2022-09-03T00:54:17;18.00;99.90
18173;DHT22;9211;48.818;9.312;2022-09-03T00:56:56;18.10;99.90
18173;DHT22;9211;48.818;9.312;2022-09-03T00:59:33;18.10;99.90
18173;DHT22;9211;48.818;9.312;2022-09-03T01:02:13;18.10;99.90
18173;DHT22;9211;48.818;9.312;2022-09-03T01:04:50;18.10;99.90
18173;DHT22;9211;48.818;9.312;2022-09-03T01:07:32;18.10;99.90
18173;DHT22;9211;48.818;9.312;2022-09-03T01:10:10;18.20;99.90
18173;DHT22;9211;48.818;9.312;2022-09-03T01:12:48;18.20;99.90
18173;DHT22;9211;48.818;9.312;2022-09-03T01:15:23;18.10;99.90
18173;DHT22;9211;48.818;9.312;2022-09-03T01:18:01;18.10;99.90
18173;DHT22;9211;48.818;9.312;2022-09-03T01:20:44;18.10;99.90
18173;DHT22;9211;48.818;9.312;2022-09-03T01:23:37;18.10;99.90
18173;DHT22;9211;48.818;9.312;2022-09-03T01:26:20;18.20;99.90
18173;DHT22;9211;48.818;9.312;2022-09-03T01:29:05;18.20;99.90
18173;DHT22;9211;48.818;9.312;2022-09-03T01:31:45;18.20;99.90
18173;DHT22;9211;48.818;9.312;2022-09-03T01:34:24;18.20;99.90
18173;DHT22;9211;48.818;9.312;2022-09-03T01:37:00;18.20;99.90
18173;DHT22;9211;48.818;9.312;2022-09-03T01:39:37;18.20;99.90
18173;DHT22;9211;48.818;9.312;2022-09-03T01:42:15;18.10;99.90
18173;DHT22;9211;48.818;9.312;2022-09-03T01:45:03;18.20;99.90
18173;DHT22;9211;48.818;9.312;2022-09-03T01:47:42;18.20;99.90
18173;DHT22;9211;48.818;9.312;2022-09-03T01:50:24;18.20;99.90
18173;DHT22;9211;48.818;9.312;2022-09-03T01:53:02;18.20;99.90
18173;DHT22;9211;48.818;9.312;2022-09-03T01:55:32;18.10;99.90
18173;DHT22;9211;48.818;9.312;2022-09-03T01:58:08;18.20;99.90
18173;DHT22;9211;48.818;9.312;2022-09-03T02:03:22;18.20;99.90
18173;DHT22;9211;48.818;9.312;2022-09-03T02:05:50;18.10;99.90
18173;DHT22;9211;48.818;9.312;2022-09-03T02:08:18;18.10;99.90
18173;DHT22;9211;48.818;9.312;2022-09-03T02:10:48;18.00;99.90
18173;DHT22;9211;48.818;9.312;2022-09-03T02:13:19;18.00;99.90
18173;DHT22;9211;48.818;9.312;2022-09-03T02:15:49;18.10;99.90
18173;DHT22;9211;48.818;9.312;2022-09-03T02:18:21;18.00;99.90
18173;DHT22;9211;48.818;9.312;2022-09-03T02:20:52;18.00;99.90
18173;DHT22;9211;48.818;9.312;2022-09-03T02:23:20;18.00;99.90
18173;DHT22;9211;48.818;9.312;2022-09-03T02:25:50;18.00;99.90
18173;DHT22;9211;48.818;9.312;2022-09-03T02:28:18;18.10;99.90
18173;DHT22;9211;48.818;9.312;2022-09-03T02:30:45;18.10;99.90
18173;DHT22;9211;48.818;9.312;2022-09-03T02:33:13;18.10;99.90
18173;DHT22;9211;48.818;9.312;2022-09-03T02:35:42;18.10;99.90
18173;DHT22;9211;48.818;9.312;2022-09-03T02:38:11;18.10;99.90
18173;DHT22;9211;48.818;9.312;2022-09-03T02:40:38;18.10;99.90
18173;DHT22;9211;48.818;9.312;2022-09-03T02:43:07;18.10;99.90
18173;DHT22;9211;48.818;9.312;2022-09-03T02:45:41;18.20;99.90
18173;DHT22;9211;48.818;9.312;2022-09-03T02:48:13;18.20;99.90
18173;DHT22;9211;48.818;9.312;2022-09-03T02:50:44;18.20;99.90
18173;DHT22;9211;48.818;9.312;2022-09-03T02:53:11;18.10;99.90
18173;DHT22;9211;48.818;9.312;2022-09-03T02:55:38;18.10;99.90
18173;DHT22;9211;48.818;9.312;2022-09-03T02:58:05;18.10;99.90
18173;DHT22;9211;48.818;9.312;2022-09-03T03:00:33;18.10;99.90
18173;DHT22;9211;48.818;9.312;2022-09-03T03:03:00;18.00;99.90
18173;DHT22;9211;48.818;9.312;2022-09-03T03:05:38;18.00;99.90
18173;DHT22;9211;48.818;9.312;2022-09-03T03:08:09;18.10;99.90
18173;DHT22;9211;48.818;9.312;2022-09-03T03:10:36;18.00;99.90
18173;DHT22;9211;48.818;9.312;2022-09-03T03:13:03;18.00;99.90
18173;DHT22;9211;48.818;9.312;2022-09-03T03:15:30;17.90;99.90
18173;DHT22;9211;48.818;9.312;2022-09-03T03:17:57;17.90;99.90
18173;DHT22;9211;48.818;9.312;2022-09-03T03:20:24;17.90;99.90
18173;DHT22;9211;48.818;9.312;2022-09-03T03:22:51;17.90;99.90
18173;DHT22;9211;48.818;9.312;2022-09-03T03:25:20;17.90;99.90
18173;DHT22;9211;48.818;9.312;2022-09-03T03:27:47;17.80;99.90
18173;DHT22;9211;48.818;9.312;2022-09-03T03:30:14;17.80;99.90
18173;DHT22;9211;48.818;9.312;2022-09-03T03:32:40;17.70;99.90
18173;DHT22;9211;48.818;9.312;2022-09-03T03:35:07;17.70;99.90
18173;DHT22;9211;48.818;9.312;2022-09-03T03:37:36;17.70;99.90
18173;DHT22;9211;48.818;9.312;2022-09-03T03:40:04;17.70;99.90
18173;DHT22;9211;48.818;9.312;2022-09-03T03:42:33;17.70;99.90
18173;DHT22;9211;48.818;9.312;2022-09-03T03:45:00;17.60;99.90
18173;DHT22;9211;48.818;9.312;2022-09-03T03:47:28;17.60;99.90
18173;DHT22;9211;48.818;9.312;2022-09-03T03:49:55;17.50;99.90
18173;DHT22;9211;48.818;9.312;2022-09-03T03:52:23;17.50;99.90
18173;DHT22;9211;48.818;9.312;2022-09-03T03:54:50;17.40;99.90
18173;DHT22;9211;48.818;9.312;2022-09-03T03:57:17;17.40;99.90
18173;DHT22;9211;48.818;9.312;2022-09-03T03:59:46;17.40;99.90
18173;DHT22;9211;48.818;9.312;2022-09-03T04:02:14;17.40;99.90
18173;DHT22;9211;48.818;9.312;2022-09-03T04:04:41;17.40;99.90
18173;DHT22;9211;48.818;9.312;2022-09-03T04:07:08;17.40;99.90
18173;DHT22;9211;48.818;9.312;2022-09-03T04:09:35;17.40;99.90
18173;DHT22;9211;48.818;9.312;2022-09-03T04:12:03;17.50;99.90
18173;DHT22;9211;48.818;9.312;2022-09-03T04:14:33;17.50;99.90
18173;DHT22;9211;48.818;9.312;2022-09-03T04:17:02;17.50;99.90
18173;DHT22;9211;48.818;9.312;2022-09-03T04:19:29;17.50;99.90
18173;DHT22;9211;48.818;9.312;2022-09-03T04:21:56;17.50;99.90
18173;DHT22;9211;48.818;9.312;2022-09-03T04:24:23;17.50;99.90
18173;DHT22;9211;48.818;9.312;2022-09-03T04:26:50;17.40;99.90
18173;DHT22;9211;48.818;9.312;2022-09-03T04:29:18;17.50;99.90
18173;DHT22;9211;48.818;9.312;2022-09-03T04:31:46;17.50;99.90
18173;DHT22;9211;48.818;9.312;2022-09-03T04:34:28;17.50;99.90
18173;DHT22;9211;48.818;9.312;2022-09-03T04:36:55;17.50;99.90
18173;DHT22;9211;48.818;9.312;2022-09-03T04:39:23;17.40;99.90
18173;DHT22;9211;48.818;9.312;2022-09-03T04:41:51;17.40;99.90
18173;DHT22;9211;48.818;9.312;2022-09-03T04:44:18;17.40;99.90
18173;DHT22;9211;48.818;9.312;2022-09-03T04:46:45;17.40;99.90
18173;DHT22;9211;48.818;9.312;2022-09-03T04:49:13;17.40;99.90
18173;DHT22;9211;48.818;9.312;2022-09-03T04:51:41;17.40;99.90
18173;DHT22;9211;48.818;9.312;2022-09-03T04:54:09;17.40;99.90
18173;DHT22;9211;48.818;9.312;2022-09-03T04:56:37;17.40;99.90
18173;DHT22;9211;48.818;9.312;2022-09-03T04:59:07;17.40;99.90
18173;DHT22;9211;48.818;9.312;2022-09-03T05:01:36;17.40;99.90
18173;DHT22;9211;48.818;9.312;2022-09-03T05:04:04;17.30;99.90
18173;DHT22;9211;48.818;9.312;2022-09-03T05:06:33;17.30;99.90
18173;DHT22;9211;48.818;9.312;2022-09-03T05:09:02;17.30;99.90
18173;DHT22;9211;48.818;9.312;2022-09-03T05:11:29;17.30;99.90
18173;DHT22;9211;48.818;9.312;2022-09-03T05:13:58;17.30;99.90
18173;DHT22;9211;48.818;9.312;2022-09-03T05:16:27;17.30;99.90
18173;DHT22;9211;48.818;9.312;2022-09-03T05:18:56;17.40;99.90
18173;DHT22;9211;48.818;9.312;2022-09-03T05:21:25;17.40;99.90
18173;DHT22;9211;48.818;9.312;2022-09-03T05:23:53;17.40;99.90
18173;DHT22;9211;48.818;9.312;2022-09-03T05:26:23;17.40;99.90
18173;DHT22;9211;48.818;9.312;2022-09-03T05:28:52;17.40;99.90
18173;DHT22;9211;48.818;9.312;2022-09-03T05:31:21;17.40;99.90
18173;DHT22;9211;48.818;9.312;2022-09-03T05:33:52;17.40;99.90
18173;DHT22;9211;48.818;9.312;2022-09-03T05:36:21;17.40;99.90
18173;DHT22;9211;48.818;9.312;2022-09-03T05:38:49;17.50;99.90
18173;DHT22;9211;48.818;9.312;2022-09-03T05:41:17;17.50;99.90
18173;DHT22;9211;48.818;9.312;2022-09-03T05:43:46;17.50;99.90
18173;DHT22;9211;48.818;9.312;2022-09-03T05:46:20;17.50;99.90
18173;DHT22;9211;48.818;9.312;2022-09-03T05:48:51;17.60;99.90
18173;DHT22;9211;48.818;9.312;2022-09-03T05:51:18;17.60;99.90
18173;DHT22;9211;48.818;9.312;2022-09-03T05:53:46;17.60;99.90
18173;DHT22;9211;48.818;9.312;2022-09-03T05:56:15;17.70;99.90
18173;DHT22;9211;48.818;9.312;2022-09-03T05:58:45;17.70;99.90
18173;DHT22;9211;48.818;9.312;2022-09-03T06:01:14;17.70;99.90
18173;DHT22;9211;48.818;9.312;2022-09-03T06:03:42;17.70;99.90
18173;DHT22;9211;48.818;9.312;2022-09-03T06:06:10;17.80;99.90
18173;DHT22;9211;48.818;9.312;2022-09-03T06:08:38;17.80;99.90
18173;DHT22;9211;48.818;9.312;2022-09-03T06:11:06;17.90;99.90
18173;DHT22;9211;48.818;9.312;2022-09-03T06:13:34;18.00;99.90
18173;DHT22;9211;48.818;9.312;2022-09-03T06:16:06;18.00;99.90
18173;DHT22;9211;48.818;9.312;2022-09-03T06:18:34;18.00;99.90
18173;DHT22;9211;48.818;9.312;2022-09-03T06:21:02;18.00;99.90
18173;DHT22;9211;48.818;9.312;2022-09-03T06:23:31;18.00;99.90
18173;DHT22;9211;48.818;9.312;2022-09-03T06:26:00;18.00;99.90
18173;DHT22;9211;48.818;9.312;2022-09-03T06:28:27;18.00;99.90
18173;DHT22;9211;48.818;9.312;2022-09-03T06:30:57;18.10;99.90
18173;DHT22;9211;48.818;9.312;2022-09-03T06:33:25;18.10;99.90
18173;DHT22;9211;48.818;9.312;2022-09-03T06:35:56;18.10;99.90
18173;DHT22;9211;48.818;9.312;2022-09-03T06:38:25;18.10;99.90
18173;DHT22;9211;48.818;9.312;2022-09-03T06:40:54;18.10;99.90
18173;DHT22;9211;48.818;9.312;2022-09-03T06:43:23;18.10;99.90
18173;DHT22;9211;48.818;9.312;2022-09-03T06:45:55;18.20;99.90
18173;DHT22;9211;48.818;9.312;2022-09-03T06:48:23;18.20;99.90
18173;DHT22;9211;48.818;9.312;2022-09-03T06:50:55;18.20;99.90
18173;DHT22;9211;48.818;9.312;2022-09-03T06:53:24;18.30;99.90
18173;DHT22;9211;48.818;9.312;2022-09-03T06:55:55;18.30;99.90
18173;DHT22;9211;48.818;9.312;2022-09-03T06:58:22;18.40;99.90
18173;DHT22;9211;48.818;9.312;2022-09-03T07:00:50;18.40;99.90
18173;DHT22;9211;48.818;9.312;2022-09-03T07:03:19;18.50;99.90
18173;DHT22;9211;48.818;9.312;2022-09-03T07:05:46;18.50;99.90
18173;DHT22;9211;48.818;9.312;2022-09-03T07:08:14;18.60;99.90
18173;DHT22;9211;48.818;9.312;2022-09-03T07:10:45;18.60;99.90
18173;DHT22;9211;48.818;9.312;2022-09-03T07:13:13;18.60;99.90
18173;DHT22;9211;48.818;9.312;2022-09-03T07:15:40;18.60;99.90
18173;DHT22;9211;48.818;9.312;2022-09-03T07:18:07;18.70;99.90
18173;DHT22;9211;48.818;9.312;2022-09-03T07:20:34;18.70;99.90
18173;DHT22;9211;48.818;9.312;2022-09-03T07:23:01;18.90;99.90
18173;DHT22;9211;48.818;9.312;2022-09-03T07:25:30;19.00;99.90
18173;DHT22;9211;48.818;9.312;2022-09-03T07:27:57;19.10;99.90
18173;DHT22;9211;48.818;9.312;2022-09-03T07:30:24;19.10;99.90
18173;DHT22;9211;48.818;9.312;2022-09-03T07:32:52;19.10;99.90
18173;DHT22;9211;48.818;9.312;2022-09-03T07:35:19;19.20;99.90
18173;DHT22;9211;48.818;9.312;2022-09-03T07:37:50;19.30;99.90
18173;DHT22;9211;48.818;9.312;2022-09-03T07:40:17;19.30;99.90
18173;DHT22;9211;48.818;9.312;2022-09-03T07:42:46;19.40;99.90
18173;DHT22;9211;48.818;9.312;2022-09-03T07:45:15;19.50;99.90
18173;DHT22;9211;48.818;9.312;2022-09-03T07:47:46;19.70;99.90
18173;DHT22;9211;48.818;9.312;2022-09-03T07:50:14;19.80;99.90
18173;DHT22;9211;48.818;9.312;2022-09-03T07:52:42;20.00;99.90
18173;DHT22;9211;48.818;9.312;2022-09-03T07:55:09;20.20;99.90
18173;DHT22;9211;48.818;9.312;2022-09-03T07:57:36;20.30;99.90
18173;DHT22;9211;48.818;9.312;2022-09-03T08:00:06;20.50;99.90
18173;DHT22;9211;48.818;9.312;2022-09-03T08:02:37;20.60;99.90
18173;DHT22;9211;48.818;9.312;2022-09-03T08:05:04;20.70;99.90
18173;DHT22;9211;48.818;9.312;2022-09-03T08:07:31;20.90;99.90
18173;DHT22;9211;48.818;9.312;2022-09-03T08:09:58;21.00;99.90
18173;DHT22;9211;48.818;9.312;2022-09-03T08:12:27;21.10;99.90
18173;DHT22;9211;48.818;9.312;2022-09-03T08:14:54;21.20;99.90
18173;DHT22;9211;48.818;9.312;2022-09-03T08:17:23;21.30;99.90
18173;DHT22;9211;48.818;9.312;2022-09-03T08:19:50;21.40;99.90
18173;DHT22;9211;48.818;9.312;2022-09-03T08:22:17;21.50;99.90
18173;DHT22;9211;48.818;9.312;2022-09-03T08:24:47;21.60;99.90
18173;DHT22;9211;48.818;9.312;2022-09-03T08:27:15;21.70;99.90
18173;DHT22;9211;48.818;9.312;2022-09-03T08:29:46;21.70;99.90
18173;DHT22;9211;48.818;9.312;2022-09-03T08:32:14;21.70;99.90
18173;DHT22;9211;48.818;9.312;2022-09-03T08:34:42;21.80;99.90
18173;DHT22;9211;48.818;9.312;2022-09-03T08:37:09;21.80;99.90
18173;DHT22;9211;48.818;9.312;2022-09-03T08:39:37;21.80;99.90
18173;DHT22;9211;48.818;9.312;2022-09-03T08:42:27;21.80;99.90
18173;DHT22;9211;48.818;9.312;2022-09-03T08:45:00;21.90;99.90
18173;DHT22;9211;48.818;9.312;2022-09-03T08:47:31;21.90;99.90
18173;DHT22;9211;48.818;9.312;2022-09-03T08:50:04;22.00;99.90
18173;DHT22;9211;48.818;9.312;2022-09-03T08:52:40;22.00;99.90
18173;DHT22;9211;48.818;9.312;2022-09-03T08:55:17;22.20;99.90
18173;DHT22;9211;48.818;9.312;2022-09-03T08:57:47;22.30;99.90
18173;DHT22;9211;48.818;9.312;2022-09-03T09:00:14;22.20;99.90
18173;DHT22;9211;48.818;9.312;2022-09-03T09:02:58;22.10;99.90
18173;DHT22;9211;48.818;9.312;2022-09-03T09:05:39;21.90;99.90
18173;DHT22;9211;48.818;9.312;2022-09-03T09:08:15;21.90;99.90
18173;DHT22;9211;48.818;9.312;2022-09-03T09:10:46;22.00;99.90
18173;DHT22;9211;48.818;9.312;2022-09-03T09:13:21;22.20;99.90
18173;DHT22;9211;48.818;9.312;2022-09-03T09:15:56;22.20;99.90
18173;DHT22;9211;48.818;9.312;2022-09-03T09:18:37;22.10;99.90
18173;DHT22;9211;48.818;9.312;2022-09-03T09:21:11;22.20;99.90
18173;DHT22;9211;48.818;9.312;2022-09-03T09:23:45;22.30;99.90
18173;DHT22;9211;48.818;9.312;2022-09-03T09:26:14;22.40;99.90
18173;DHT22;9211;48.818;9.312;2022-09-03T09:28:44;22.40;99.90
18173;DHT22;9211;48.818;9.312;2022-09-03T09:31:14;22.50;99.90
18173;DHT22;9211;48.818;9.312;2022-09-03T09:33:43;22.50;99.90
18173;DHT22;9211;48.818;9.312;2022-09-03T09:36:15;22.40;99.90
18173;DHT22;9211;48.818;9.312;2022-09-03T09:39:14;22.20;99.90
18173;DHT22;9211;48.818;9.312;2022-09-03T09:41:56;22.10;99.90
18173;DHT22;9211;48.818;9.312;2022-09-03T09:44:24;22.00;99.90
18173;DHT22;9211;48.818;9.312;2022-09-03T09:47:02;21.90;99.90
18173;DHT22;9211;48.818;9.312;2022-09-03T09:49:33;21.70;99.90
18173;DHT22;9211;48.818;9.312;2022-09-03T09:52:10;21.60;99.90
18173;DHT22;9211;48.818;9.312;2022-09-03T09:54:38;21.70;99.90
18173;DHT22;9211;48.818;9.312;2022-09-03T09:57:12;21.70;99.90
18173;DHT22;9211;48.818;9.312;2022-09-03T09:59:43;21.70;99.90
18173;DHT22;9211;48.818;9.312;2022-09-03T10:02:13;21.70;99.90
18173;DHT22;9211;48.818;9.312;2022-09-03T10:04:41;21.70;99.90
18173;DHT22;9211;48.818;9.312;2022-09-03T10:07:26;21.70;99.90
18173;DHT22;9211;48.818;9.312;2022-09-03T10:10:03;21.80;99.90
18173;DHT22;9211;48.818;9.312;2022-09-03T10:12:37;21.90;99.90
18173;DHT22;9211;48.818;9.312;2022-09-03T10:15:20;21.90;99.90
18173;DHT22;9211;48.818;9.312;2022-09-03T10:17:56;22.00;99.90
18173;DHT22;9211;48.818;9.312;2022-09-03T10:20:32;22.10;99.90
18173;DHT22;9211;48.818;9.312;2022-09-03T10:23:10;22.20;99.90
18173;DHT22;9211;48.818;9.312;2022-09-03T10:25:45;22.20;99.90
18173;DHT22;9211;48.818;9.312;2022-09-03T10:28:17;22.20;99.90
18173;DHT22;9211;48.818;9.312;2022-09-03T10:31:12;22.20;99.90
18173;DHT22;9211;48.818;9.312;2022-09-03T10:33:46;22.20;99.90
18173;DHT22;9211;48.818;9.312;2022-09-03T10:36:19;22.20;99.90
18173;DHT22;9211;48.818;9.312;2022-09-03T10:38:53;22.30;99.90
18173;DHT22;9211;48.818;9.312;2022-09-03T10:41:34;22.40;99.90
18173;DHT22;9211;48.818;9.312;2022-09-03T10:44:20;22.60;99.90
18173;DHT22;9211;48.818;9.312;2022-09-03T10:46:57;22.70;99.90
18173;DHT22;9211;48.818;9.312;2022-09-03T10:49:38;22.80;99.90
18173;DHT22;9211;48.818;9.312;2022-09-03T10:52:18;22.90;99.90
18173;DHT22;9211;48.818;9.312;2022-09-03T10:54:58;22.80;99.90
18173;DHT22;9211;48.818;9.312;2022-09-03T10:57:38;22.90;99.90
18173;DHT22;9211;48.818;9.312;2022-09-03T11:00:08;23.00;99.90
18173;DHT22;9211;48.818;9.312;2022-09-03T11:03:19;22.90;99.90
18173;DHT22;9211;48.818;9.312;2022-09-03T11:05:57;23.10;99.90
18173;DHT22;9211;48.818;9.312;2022-09-03T11:08:29;23.10;99.90
18173;DHT22;9211;48.818;9.312;2022-09-03T11:11:07;23.30;99.90
18173;DHT22;9211;48.818;9.312;2022-09-03T11:13:39;23.30;99.90
18173;DHT22;9211;48.818;9.312;2022-09-03T11:16:12;23.20;99.90
18173;DHT22;9211;48.818;9.312;2022-09-03T11:18:43;23.30;99.90
18173;DHT22;9211;48.818;9.312;2022-09-03T11:21:14;23.40;99.90
18173;DHT22;9211;48.818;9.312;2022-09-03T11:23:45;23.40;99.90
18173;DHT22;9211;48.818;9.312;2022-09-03T11:26:17;23.40;99.90
18173;DHT22;9211;48.818;9.312;2022-09-03T11:28:51;23.50;99.90
18173;DHT22;9211;48.818;9.312;2022-09-03T11:31:30;23.60;99.90
18173;DHT22;9211;48.818;9.312;2022-09-03T11:34:05;23.60;99.90
18173;DHT22;9211;48.818;9.312;2022-09-03T11:36:34;23.70;99.90
18173;DHT22;9211;48.818;9.312;2022-09-03T11:39:12;23.70;99.90
18173;DHT22;9211;48.818;9.312;2022-09-03T11:41:43;23.80;99.90
18173;DHT22;9211;48.818;9.312;2022-09-03T11:44:16;23.80;99.90
18173;DHT22;9211;48.818;9.312;2022-09-03T11:46:53;23.90;99.90
18173;DHT22;9211;48.818;9.312;2022-09-03T11:49:28;23.90;99.90
18173;DHT22;9211;48.818;9.312;2022-09-03T11:51:58;23.80;99.90
18173;DHT22;9211;48.818;9.312;2022-09-03T11:54:30;23.90;99.90
18173;DHT22;9211;48.818;9.312;2022-09-03T11:57:22;23.80;99.90
18173;DHT22;9211;48.818;9.312;2022-09-03T11:59:49;23.80;99.90
18173;DHT22;9211;48.818;9.312;2022-09-03T12:02:24;23.70;99.90
18173;DHT22;9211;48.818;9.312;2022-09-03T12:05:05;23.70;99.90
18173;DHT22;9211;48.818;9.312;2022-09-03T12:07:46;23.60;99.90
18173;DHT22;9211;48.818;9.312;2022-09-03T12:10:26;23.50;99.90
18173;DHT22;9211;48.818;9.312;2022-09-03T12:13:20;23.40;99.90
18173;DHT22;9211;48.818;9.312;2022-09-03T12:16:14;23.30;99.90
18173;DHT22;9211;48.818;9.312;2022-09-03T12:18:47;23.20;99.90
18173;DHT22;9211;48.818;9.312;2022-09-03T12:21:18;23.10;99.90
18173;DHT22;9211;48.818;9.312;2022-09-03T12:23:47;23.10;99.90
18173;DHT22;9211;48.818;9.312;2022-09-03T12:26:16;22.90;99.90
18173;DHT22;9211;48.818;9.312;2022-09-03T12:28:47;22.80;99.90
18173;DHT22;9211;48.818;9.312;2022-09-03T12:31:16;22.70;99.90
18173;DHT22;9211;48.818;9.312;2022-09-03T12:33:52;22.70;99.90
18173;DHT22;9211;48.818;9.312;2022-09-03T12:36:21;22.60;99.90
18173;DHT22;9211;48.818;9.312;2022-09-03T12:38:48;22.60;99.90
18173;DHT22;9211;48.818;9.312;2022-09-03T12:41:24;22.50;99.90
18173;DHT22;9211;48.818;9.312;2022-09-03T12:43:55;22.50;99.90
18173;DHT22;9211;48.818;9.312;2022-09-03T12:46:24;22.50;99.90
18173;DHT22;9211;48.818;9.312;2022-09-03T12:48:55;22.30;99.90
18173;DHT22;9211;48.818;9.312;2022-09-03T12:51:24;22.10;99.90
18173;DHT22;9211;48.818;9.312;2022-09-03T12:53:52;21.90;99.90
18173;DHT22;9211;48.818;9.312;2022-09-03T12:56:20;21.70;99.90
18173;DHT22;9211;48.818;9.312;2022-09-03T12:58:55;21.50;99.90
18173;DHT22;9211;48.818;9.312;2022-09-03T13:01:27;21.40;99.90
18173;DHT22;9211;48.818;9.312;2022-09-03T13:04:02;21.20;99.90
18173;DHT22;9211;48.818;9.312;2022-09-03T13:06:38;21.00;99.90
18173;DHT22;9211;48.818;9.312;2022-09-03T13:09:07;20.80;99.90
18173;DHT22;9211;48.818;9.312;2022-09-03T13:11:35;20.70;99.90
18173;DHT22;9211;48.818;9.312;2022-09-03T13:14:06;20.60;99.90
18173;DHT22;9211;48.818;9.312;2022-09-03T13:16:59;20.50;99.90
18173;DHT22;9211;48.818;9.312;2022-09-03T13:19:37;20.40;99.90
18173;DHT22;9211;48.818;9.312;2022-09-03T13:22:13;20.30;99.90
18173;DHT22;9211;48.818;9.312;2022-09-03T13:24:59;20.20;99.90
18173;DHT22;9211;48.818;9.312;2022-09-03T13:27:32;20.10;99.90
18173;DHT22;9211;48.818;9.312;2022-09-03T13:30:08;20.10;99.90
18173;DHT22;9211;48.818;9.312;2022-09-03T13:32:52;20.10;99.90
18173;DHT22;9211;48.818;9.312;2022-09-03T13:35:29;20.10;99.90
18173;DHT22;9211;48.818;9.312;2022-09-03T13:38:06;20.10;99.90
18173;DHT22;9211;48.818;9.312;2022-09-03T13:40:40;20.10;99.90
18173;DHT22;9211;48.818;9.312;2022-09-03T13:43:20;20.10;99.90
18173;DHT22;9211;48.818;9.312;2022-09-03T13:45:55;20.20;99.90
18173;DHT22;9211;48.818;9.312;2022-09-03T13:48:27;20.30;99.90
18173;DHT22;9211;48.818;9.312;2022-09-03T13:51:18;20.40;99.90
18173;DHT22;9211;48.818;9.312;2022-09-03T13:53:58;20.50;99.90
18173;DHT22;9211;48.818;9.312;2022-09-03T13:56:35;20.70;99.90
18173;DHT22;9211;48.818;9.312;2022-09-03T13:59:14;20.90;99.90
18173;DHT22;9211;48.818;9.312;2022-09-03T14:01:59;21.00;99.90
18173;DHT22;9211;48.818;9.312;2022-09-03T14:04:39;21.20;99.90
18173;DHT22;9211;48.818;9.312;2022-09-03T14:07:14;21.40;99.90
18173;DHT22;9211;48.818;9.312;2022-09-03T14:09:50;21.50;99.90
18173;DHT22;9211;48.818;9.312;2022-09-03T14:12:27;21.70;99.90
18173;DHT22;9211;48.818;9.312;2022-09-03T14:15:00;21.60;99.90
18173;DHT22;9211;48.818;9.312;2022-09-03T14:17:38;21.60;99.90
18173;DHT22;9211;48.818;9.312;2022-09-03T14:20:11;21.70;99.90
18173;DHT22;9211;48.818;9.312;2022-09-03T14:22:47;21.60;99.90
18173;DHT22;9211;48.818;9.312;2022-09-03T14:25:18;21.60;99.90
18173;DHT22;9211;48.818;9.312;2022-09-03T14:27:45;21.60;99.90
18173;DHT22;9211;48.818;9.312;2022-09-03T14:30:28;21.50;99.90
18173;DHT22;9211;48.818;9.312;2022-09-03T14:33:05;21.70;99.90
18173;DHT22;9211;48.818;9.312;2022-09-03T14:35:45;21.90;99.90
18173;DHT22;9211;48.818;9.312;2022-09-03T14:38:36;22.00;99.90
18173;DHT22;9211;48.818;9.312;2022-09-03T14:41:20;22.10;99.90
18173;DHT22;9211;48.818;9.312;2022-09-03T14:44:11;22.00;99.90
18173;DHT22;9211;48.818;9.312;2022-09-03T14:46:58;22.00;99.90
18173;DHT22;9211;48.818;9.312;2022-09-03T14:50:03;21.90;99.90
18173;DHT22;9211;48.818;9.312;2022-09-03T14:52:57;21.70;99.90
18173;DHT22;9211;48.818;9.312;2022-09-03T14:55:37;21.60;99.90
18173;DHT22;9211;48.818;9.312;2022-09-03T14:58:23;21.50;99.90
18173;DHT22;9211;48.818;9.312;2022-09-03T15:00:59;21.50;99.90
18173;DHT22;9211;48.818;9.312;2022-09-03T15:03:45;21.50;99.90
18173;DHT22;9211;48.818;9.312;2022-09-03T15:06:38;21.40;99.90
18173;DHT22;9211;48.818;9.312;2022-09-03T15:09:26;21.40;99.90
18173;DHT22;9211;48.818;9.312;2022-09-03T15:11:56;21.30;99.90
18173;DHT22;9211;48.818;9.312;2022-09-03T15:14:28;21.20;99.90
18173;DHT22;9211;48.818;9.312;2022-09-03T15:16:59;21.20;99.90
18173;DHT22;9211;48.818;9.312;2022-09-03T15:19:46;21.30;99.90
18173;DHT22;9211;48.818;9.312;2022-09-03T15:22:29;21.20;99.90
18173;DHT22;9211;48.818;9.312;2022-09-03T15:25:05;21.20;99.90
18173;DHT22;9211;48.818;9.312;2022-09-03T15:27:46;21.30;99.90
18173;DHT22;9211;48.818;9.312;2022-09-03T15:30:18;21.50;99.90
18173;DHT22;9211;48.818;9.312;2022-09-03T15:32:56;21.50;99.90
18173;DHT22;9211;48.818;9.312;2022-09-03T15:35:44;21.60;99.90
18173;DHT22;9211;48.818;9.312;2022-09-03T15:38:24;21.70;99.90
18173;DHT22;9211;48.818;9.312;2022-09-03T15:40:56;21.80;99.90
18173;DHT22;9211;48.818;9.312;2022-09-03T15:43:28;21.80;99.90
18173;DHT22;9211;48.818;9.312;2022-09-03T15:45:58;21.80;99.90
18173;DHT22;9211;48.818;9.312;2022-09-03T15:48:31;21.70;99.90
18173;DHT22;9211;48.818;9.312;2022-09-03T15:51:09;21.60;99.90
18173;DHT22;9211;48.818;9.312;2022-09-03T15:53:46;21.60;99.90
18173;DHT22;9211;48.818;9.312;2022-09-03T15:56:25;21.60;99.90
18173;DHT22;9211;48.818;9.312;2022-09-03T15:59:00;21.60;99.90
18173;DHT22;9211;48.818;9.312;2022-09-03T16:01:35;21.70;99.90
18173;DHT22;9211;48.818;9.312;2022-09-03T16:04:17;21.80;99.90
18173;DHT22;9211;48.818;9.312;2022-09-03T16:06:56;21.90;99.90
18173;DHT22;9211;48.818;9.312;2022-09-03T16:09:33;22.00;99.90
18173;DHT22;9211;48.818;9.312;2022-09-03T16:12:09;22.10;99.90
18173;DHT22;9211;48.818;9.312;2022-09-03T16:14:43;22.10;99.90
18173;DHT22;9211;48.818;9.312;2022-09-03T16:17:21;22.10;99.90
18173;DHT22;9211;48.818;9.312;2022-09-03T16:19:55;22.10;99.90
18173;DHT22;9211;48.818;9.312;2022-09-03T16:22:26;22.00;99.90
18173;DHT22;9211;48.818;9.312;2022-09-03T16:24:59;21.90;99.90